sensor_id;sensor_type;location;lat;lon;timestamp;P1;durP1;ratioP1;P2;durP2;ratioP2
58896;SDS011;44677;52.378;10.400;2023-09-18T00:00:49;6.40;;;4.30;;
58896;SDS011;44677;52.378;10.400;2023-09-18T00:03:15;4.40;;;3.90;;
58896;SDS011;44677;52.378;10.400;2023-09-18T00:05:43;4.70;;;4.30;;
58896;SDS011;44677;52.378;10.400;2023-09-18T00:08:08;4.20;;;3.80;;
58896;SDS011;44677;52.378;10.400;2023-09-18T00:10:34;6.00;;;4.50;;
58896;SDS011;44677;52.378;10.400;2023-09-18T00:13:00;4.60;;;4.20;;
58896;SDS011;44677;52.378;10.400;2023-09-18T00:15:28;5.10;;;4.20;;
58896;SDS011;44677;52.378;10.400;2023-09-18T00:17:54;6.10;;;4.30;;
58896;SDS011;44677;52.378;10.400;2023-09-18T00:20:19;4.90;;;4.40;;
58896;SDS011;44677;52.378;10.400;2023-09-18T00:22:45;4.70;;;4.20;;
58896;SDS011;44677;52.378;10.400;2023-09-18T00:25:11;4.90;;;3.90;;
58896;SDS011;44677;52.378;10.400;2023-09-18T00:27:36;4.80;;;4.40;;
58896;SDS011;44677;52.378;10.400;2023-09-18T00:30:03;5.90;;;4.80;;
58896;SDS011;44677;52.378;10.400;2023-09-18T00:32:29;4.50;;;4.10;;
58896;SDS011;44677;52.378;10.400;2023-09-18T00:34:55;5.20;;;4.20;;
58896;SDS011;44677;52.378;10.400;2023-09-18T00:37:20;4.90;;;4.00;;
58896;SDS011;44677;52.378;10.400;2023-09-18T00:39:46;5.60;;;4.70;;
58896;SDS011;44677;52.378;10.400;2023-09-18T00:42:11;5.30;;;4.40;;
58896;SDS011;44677;52.378;10.400;2023-09-18T00:44:42;6.50;;;4.50;;
58896;SDS011;44677;52.378;10.400;2023-09-18T00:47:08;4.80;;;4.40;;
58896;SDS011;44677;52.378;10.400;2023-09-18T00:49:34;5.70;;;4.20;;
58896;SDS011;44677;52.378;10.400;2023-09-18T00:52:01;4.50;;;4.10;;
58896;SDS011;44677;52.378;10.400;2023-09-18T00:54:27;5.70;;;4.30;;
58896;SDS011;44677;52.378;10.400;2023-09-18T00:56:52;5.40;;;4.40;;
58896;SDS011;44677;52.378;10.400;2023-09-18T00:59:20;5.00;;;4.50;;
58896;SDS011;44677;52.378;10.400;2023-09-18T01:01:46;5.80;;;4.50;;
58896;SDS011;44677;52.378;10.400;2023-09-18T01:04:19;7.20;;;4.30;;
58896;SDS011;44677;52.378;10.400;2023-09-18T01:06:44;5.00;;;4.50;;
58896;SDS011;44677;52.378;10.400;2023-09-18T01:09:10;5.10;;;4.40;;
58896;SDS011;44677;52.378;10.400;2023-09-18T01:17:11;4.70;;;4.00;;
58896;SDS011;44677;52.378;10.400;2023-09-18T01:19:45;4.20;;;3.80;;
58896;SDS011;44677;52.378;10.400;2023-09-18T01:22:15;4.50;;;3.70;;
58896;SDS011;44677;52.378;10.400;2023-09-18T01:24:43;5.90;;;3.60;;
58896;SDS011;44677;52.378;10.400;2023-09-18T01:27:17;3.60;;;3.30;;
58896;SDS011;44677;52.378;10.400;2023-09-18T01:29:46;5.60;;;3.90;;
58896;SDS011;44677;52.378;10.400;2023-09-18T01:32:13;4.10;;;3.70;;
58896;SDS011;44677;52.378;10.400;2023-09-18T01:34:42;4.80;;;3.90;;
58896;SDS011;44677;52.378;10.400;2023-09-18T01:37:19;8.10;;;4.20;;
58896;SDS011;44677;52.378;10.400;2023-09-18T01:39:47;4.60;;;4.20;;
58896;SDS011;44677;52.378;10.400;2023-09-18T01:42:15;6.00;;;4.40;;
58896;SDS011;44677;52.378;10.400;2023-09-18T01:44:41;5.00;;;4.00;;
58896;SDS011;44677;52.378;10.400;2023-09-18T01:47:08;6.50;;;4.40;;
58896;SDS011;44677;52.378;10.400;2023-09-18T01:49:36;4.60;;;4.20;;
58896;SDS011;44677;52.378;10.400;2023-09-18T01:52:08;5.30;;;4.40;;
58896;SDS011;44677;52.378;10.400;2023-09-18T01:54:34;6.70;;;4.60;;
58896;SDS011;44677;52.378;10.400;2023-09-18T01:57:00;5.50;;;4.90;;
58896;SDS011;44677;52.378;10.400;2023-09-18T01:59:26;6.00;;;4.60;;
58896;SDS011;44677;52.378;10.400;2023-09-18T02:01:52;4.70;;;4.30;;
58896;SDS011;44677;52.378;10.400;2023-09-18T02:04:21;5.00;;;4.20;;
58896;SDS011;44677;52.378;10.400;2023-09-18T02:06:48;4.60;;;4.10;;
58896;SDS011;44677;52.378;10.400;2023-09-18T02:09:15;4.80;;;4.30;;
58896;SDS011;44677;52.378;10.400;2023-09-18T02:11:42;5.50;;;4.60;;
58896;SDS011;44677;52.378;10.400;2023-09-18T02:14:09;4.90;;;4.40;;
58896;SDS011;44677;52.378;10.400;2023-09-18T02:16:37;4.90;;;4.40;;
58896;SDS011;44677;52.378;10.400;2023-09-18T02:19:07;5.80;;;4.20;;
58896;SDS011;44677;52.378;10.400;2023-09-18T02:21:46;5.00;;;4.10;;
58896;SDS011;44677;52.378;10.400;2023-09-18T02:24:12;4.70;;;4.30;;
58896;SDS011;44677;52.378;10.400;2023-09-18T02:26:37;5.60;;;4.70;;
58896;SDS011;44677;52.378;10.400;2023-09-18T02:29:05;4.70;;;4.30;;
58896;SDS011;44677;52.378;10.400;2023-09-18T02:31:39;5.60;;;5.10;;
58896;SDS011;44677;52.378;10.400;2023-09-18T02:34:05;5.80;;;4.90;;
58896;SDS011;44677;52.378;10.400;2023-09-18T02:36:32;5.00;;;4.50;;
58896;SDS011;44677;52.378;10.400;2023-09-18T02:38:58;6.60;;;4.80;;
58896;SDS011;44677;52.378;10.400;2023-09-18T02:41:24;5.70;;;4.40;;
58896;SDS011;44677;52.378;10.400;2023-09-18T02:43:50;5.00;;;4.40;;
58896;SDS011;44677;52.378;10.400;2023-09-18T02:46:15;4.90;;;4.50;;
58896;SDS011;44677;52.378;10.400;2023-09-18T02:48:41;7.30;;;4.80;;
58896;SDS011;44677;52.378;10.400;2023-09-18T02:51:08;7.10;;;4.90;;
58896;SDS011;44677;52.378;10.400;2023-09-18T02:53:34;5.40;;;4.90;;
58896;SDS011;44677;52.378;10.400;2023-09-18T02:56:00;5.90;;;4.80;;
58896;SDS011;44677;52.378;10.400;2023-09-18T02:58:25;5.70;;;4.50;;
58896;SDS011;44677;52.378;10.400;2023-09-18T03:00:56;5.70;;;4.40;;
58896;SDS011;44677;52.378;10.400;2023-09-18T03:03:25;5.70;;;4.70;;
58896;SDS011;44677;52.378;10.400;2023-09-18T03:05:51;4.70;;;4.00;;
58896;SDS011;44677;52.378;10.400;2023-09-18T03:08:16;5.00;;;4.60;;
58896;SDS011;44677;52.378;10.400;2023-09-18T03:10:43;5.80;;;4.60;;
58896;SDS011;44677;52.378;10.400;2023-09-18T03:13:10;4.50;;;4.10;;
58896;SDS011;44677;52.378;10.400;2023-09-18T03:15:36;5.20;;;4.50;;
58896;SDS011;44677;52.378;10.400;2023-09-18T03:18:02;5.20;;;4.70;;
58896;SDS011;44677;52.378;10.400;2023-09-18T03:20:29;4.80;;;4.40;;
58896;SDS011;44677;52.378;10.400;2023-09-18T03:22:56;6.30;;;4.50;;
58896;SDS011;44677;52.378;10.400;2023-09-18T03:25:26;5.50;;;4.40;;
58896;SDS011;44677;52.378;10.400;2023-09-18T03:27:52;4.80;;;4.40;;
58896;SDS011;44677;52.378;10.400;2023-09-18T03:30:20;5.30;;;4.80;;
58896;SDS011;44677;52.378;10.400;2023-09-18T03:35:13;5.40;;;4.40;;
58896;SDS011;44677;52.378;10.400;2023-09-18T03:37:47;5.30;;;4.80;;
58896;SDS011;44677;52.378;10.400;2023-09-18T03:40:13;6.60;;;4.80;;
58896;SDS011;44677;52.378;10.400;2023-09-18T03:42:44;5.30;;;4.10;;
58896;SDS011;44677;52.378;10.400;2023-09-18T03:45:11;5.30;;;4.60;;
58896;SDS011;44677;52.378;10.400;2023-09-18T03:47:37;5.50;;;5.10;;
58896;SDS011;44677;52.378;10.400;2023-09-18T03:50:05;4.70;;;4.30;;
58896;SDS011;44677;52.378;10.400;2023-09-18T03:52:31;5.10;;;4.60;;
58896;SDS011;44677;52.378;10.400;2023-09-18T03:54:57;5.10;;;4.60;;
58896;SDS011;44677;52.378;10.400;2023-09-18T03:57:22;5.80;;;4.50;;
58896;SDS011;44677;52.378;10.400;2023-09-18T04:02:14;4.80;;;4.50;;
58896;SDS011;44677;52.378;10.400;2023-09-18T04:04:40;5.40;;;4.80;;
58896;SDS011;44677;52.378;10.400;2023-09-18T04:07:07;5.60;;;4.80;;
58896;SDS011;44677;52.378;10.400;2023-09-18T04:09:33;6.20;;;5.30;;
58896;SDS011;44677;52.378;10.400;2023-09-18T04:12:02;5.80;;;5.30;;
58896;SDS011;44677;52.378;10.400;2023-09-18T04:14:33;5.80;;;5.10;;
58896;SDS011;44677;52.378;10.400;2023-09-18T04:16:59;5.60;;;5.10;;
58896;SDS011;44677;52.378;10.400;2023-09-18T04:19:27;5.80;;;5.30;;
58896;SDS011;44677;52.378;10.400;2023-09-18T04:21:53;6.40;;;5.80;;
58896;SDS011;44677;52.378;10.400;2023-09-18T04:24:18;5.50;;;5.00;;
58896;SDS011;44677;52.378;10.400;2023-09-18T04:26:44;6.30;;;4.90;;
58896;SDS011;44677;52.378;10.400;2023-09-18T04:29:09;6.10;;;5.10;;
58896;SDS011;44677;52.378;10.400;2023-09-18T04:31:35;5.40;;;4.90;;
58896;SDS011;44677;52.378;10.400;2023-09-18T04:34:00;6.00;;;4.90;;
58896;SDS011;44677;52.378;10.400;2023-09-18T04:36:26;9.10;;;5.60;;
58896;SDS011;44677;52.378;10.400;2023-09-18T04:38:51;6.60;;;5.60;;
58896;SDS011;44677;52.378;10.400;2023-09-18T04:41:17;6.80;;;5.60;;
58896;SDS011;44677;52.378;10.400;2023-09-18T04:43:42;5.80;;;5.30;;
58896;SDS011;44677;52.378;10.400;2023-09-18T04:46:08;6.90;;;4.80;;
58896;SDS011;44677;52.378;10.400;2023-09-18T04:48:34;8.50;;;5.70;;
58896;SDS011;44677;52.378;10.400;2023-09-18T04:51:00;6.90;;;5.40;;
58896;SDS011;44677;52.378;10.400;2023-09-18T04:55:52;5.80;;;5.20;;
58896;SDS011;44677;52.378;10.400;2023-09-18T04:58:18;5.90;;;5.40;;
58896;SDS011;44677;52.378;10.400;2023-09-18T05:00:44;7.20;;;5.20;;
58896;SDS011;44677;52.378;10.400;2023-09-18T05:03:09;6.80;;;5.60;;
58896;SDS011;44677;52.378;10.400;2023-09-18T05:05:38;5.80;;;5.30;;
58896;SDS011;44677;52.378;10.400;2023-09-18T05:08:05;5.80;;;5.20;;
58896;SDS011;44677;52.378;10.400;2023-09-18T05:10:35;6.40;;;5.20;;
58896;SDS011;44677;52.378;10.400;2023-09-18T05:13:01;6.10;;;5.40;;
58896;SDS011;44677;52.378;10.400;2023-09-18T05:15:27;5.50;;;5.00;;
58896;SDS011;44677;52.378;10.400;2023-09-18T05:18:00;5.30;;;4.80;;
58896;SDS011;44677;52.378;10.400;2023-09-18T05:20:26;5.80;;;5.00;;
58896;SDS011;44677;52.378;10.400;2023-09-18T05:22:53;8.30;;;5.30;;
58896;SDS011;44677;52.378;10.400;2023-09-18T05:25:27;6.10;;;5.50;;
58896;SDS011;44677;52.378;10.400;2023-09-18T05:27:58;6.00;;;5.30;;
58896;SDS011;44677;52.378;10.400;2023-09-18T05:30:25;5.20;;;4.80;;
58896;SDS011;44677;52.378;10.400;2023-09-18T05:32:54;5.70;;;5.20;;
58896;SDS011;44677;52.378;10.400;2023-09-18T05:35:21;5.40;;;4.90;;
58896;SDS011;44677;52.378;10.400;2023-09-18T05:37:48;6.40;;;5.60;;
58896;SDS011;44677;52.378;10.400;2023-09-18T05:40:16;6.40;;;5.70;;
58896;SDS011;44677;52.378;10.400;2023-09-18T05:42:43;13.00;;;6.20;;
58896;SDS011;44677;52.378;10.400;2023-09-18T05:45:09;6.80;;;5.30;;
58896;SDS011;44677;52.378;10.400;2023-09-18T05:47:35;7.50;;;5.30;;
58896;SDS011;44677;52.378;10.400;2023-09-18T05:50:02;6.10;;;5.50;;
58896;SDS011;44677;52.378;10.400;2023-09-18T05:52:32;7.30;;;5.60;;
58896;SDS011;44677;52.378;10.400;2023-09-18T05:54:59;6.30;;;5.70;;
58896;SDS011;44677;52.378;10.400;2023-09-18T05:57:25;6.50;;;5.70;;
58896;SDS011;44677;52.378;10.400;2023-09-18T06:00:00;5.70;;;5.00;;
58896;SDS011;44677;52.378;10.400;2023-09-18T06:02:26;7.90;;;5.10;;
58896;SDS011;44677;52.378;10.400;2023-09-18T06:04:55;5.90;;;5.30;;
58896;SDS011;44677;52.378;10.400;2023-09-18T06:07:27;5.90;;;5.40;;
58896;SDS011;44677;52.378;10.400;2023-09-18T06:09:53;8.20;;;6.00;;
58896;SDS011;44677;52.378;10.400;2023-09-18T06:12:32;7.10;;;5.40;;
58896;SDS011;44677;52.378;10.400;2023-09-18T06:15:10;6.10;;;5.50;;
58896;SDS011;44677;52.378;10.400;2023-09-18T06:17:43;6.70;;;5.50;;
58896;SDS011;44677;52.378;10.400;2023-09-18T06:20:20;6.90;;;5.60;;
58896;SDS011;44677;52.378;10.400;2023-09-18T06:22:59;6.90;;;5.50;;
58896;SDS011;44677;52.378;10.400;2023-09-18T06:25:27;8.80;;;5.50;;
58896;SDS011;44677;52.378;10.400;2023-09-18T06:28:13;6.40;;;5.70;;
58896;SDS011;44677;52.378;10.400;2023-09-18T06:30:44;6.00;;;4.90;;
58896;SDS011;44677;52.378;10.400;2023-09-18T06:33:12;5.60;;;5.00;;
58896;SDS011;44677;52.378;10.400;2023-09-18T06:35:40;5.80;;;5.30;;
58896;SDS011;44677;52.378;10.400;2023-09-18T06:38:08;5.70;;;5.10;;
58896;SDS011;44677;52.378;10.400;2023-09-18T06:40:38;5.10;;;4.70;;
58896;SDS011;44677;52.378;10.400;2023-09-18T06:43:04;6.00;;;5.20;;
58896;SDS011;44677;52.378;10.400;2023-09-18T06:45:30;5.90;;;4.70;;
58896;SDS011;44677;52.378;10.400;2023-09-18T06:47:56;5.70;;;4.80;;
58896;SDS011;44677;52.378;10.400;2023-09-18T06:50:21;6.10;;;4.80;;
58896;SDS011;44677;52.378;10.400;2023-09-18T06:52:46;5.40;;;4.80;;
58896;SDS011;44677;52.378;10.400;2023-09-18T06:55:12;5.20;;;4.80;;
58896;SDS011;44677;52.378;10.400;2023-09-18T06:57:40;6.20;;;4.60;;
58896;SDS011;44677;52.378;10.400;2023-09-18T07:00:08;7.70;;;4.90;;
58896;SDS011;44677;52.378;10.400;2023-09-18T07:02:37;4.90;;;4.30;;
58896;SDS011;44677;52.378;10.400;2023-09-18T07:05:05;5.10;;;4.60;;
58896;SDS011;44677;52.378;10.400;2023-09-18T07:07:31;6.00;;;4.30;;
58896;SDS011;44677;52.378;10.400;2023-09-18T07:10:02;5.40;;;4.30;;
58896;SDS011;44677;52.378;10.400;2023-09-18T07:12:31;4.20;;;3.90;;
58896;SDS011;44677;52.378;10.400;2023-09-18T07:15:04;5.90;;;4.00;;
58896;SDS011;44677;52.378;10.400;2023-09-18T07:17:37;4.70;;;4.30;;
58896;SDS011;44677;52.378;10.400;2023-09-18T07:20:03;4.80;;;4.30;;
58896;SDS011;44677;52.378;10.400;2023-09-18T07:22:47;4.50;;;4.00;;
58896;SDS011;44677;52.378;10.400;2023-09-18T07:25:16;4.60;;;4.00;;
58896;SDS011;44677;52.378;10.400;2023-09-18T07:27:45;4.60;;;3.90;;
58896;SDS011;44677;52.378;10.400;2023-09-18T07:30:13;4.70;;;4.30;;
58896;SDS011;44677;52.378;10.400;2023-09-18T07:32:44;5.00;;;4.50;;
58896;SDS011;44677;52.378;10.400;2023-09-18T07:35:11;5.20;;;4.10;;
58896;SDS011;44677;52.378;10.400;2023-09-18T07:37:41;5.90;;;4.50;;
58896;SDS011;44677;52.378;10.400;2023-09-18T07:40:06;6.20;;;4.70;;
58896;SDS011;44677;52.378;10.400;2023-09-18T07:42:32;6.00;;;4.40;;
58896;SDS011;44677;52.378;10.400;2023-09-18T07:45:01;5.30;;;4.10;;
58896;SDS011;44677;52.378;10.400;2023-09-18T07:47:26;4.80;;;4.40;;
58896;SDS011;44677;52.378;10.400;2023-09-18T07:49:52;7.40;;;4.20;;
58896;SDS011;44677;52.378;10.400;2023-09-18T07:52:21;5.10;;;4.40;;
58896;SDS011;44677;52.378;10.400;2023-09-18T07:54:46;7.20;;;4.70;;
58896;SDS011;44677;52.378;10.400;2023-09-18T07:57:12;4.70;;;4.30;;
58896;SDS011;44677;52.378;10.400;2023-09-18T07:59:46;5.90;;;4.40;;
58896;SDS011;44677;52.378;10.400;2023-09-18T08:02:13;4.40;;;4.10;;
58896;SDS011;44677;52.378;10.400;2023-09-18T08:04:39;5.30;;;4.80;;
58896;SDS011;44677;52.378;10.400;2023-09-18T08:07:07;5.40;;;4.10;;
58896;SDS011;44677;52.378;10.400;2023-09-18T08:09:33;7.50;;;4.10;;
58896;SDS011;44677;52.378;10.400;2023-09-18T08:12:04;4.40;;;4.00;;
58896;SDS011;44677;52.378;10.400;2023-09-18T08:14:34;5.50;;;4.50;;
58896;SDS011;44677;52.378;10.400;2023-09-18T08:17:08;5.90;;;4.10;;
58896;SDS011;44677;52.378;10.400;2023-09-18T08:19:36;6.80;;;4.30;;
58896;SDS011;44677;52.378;10.400;2023-09-18T08:22:02;6.40;;;4.60;;
58896;SDS011;44677;52.378;10.400;2023-09-18T08:24:30;4.20;;;3.90;;
58896;SDS011;44677;52.378;10.400;2023-09-18T08:26:56;4.90;;;4.30;;
58896;SDS011;44677;52.378;10.400;2023-09-18T08:29:22;4.90;;;4.30;;
58896;SDS011;44677;52.378;10.400;2023-09-18T08:31:50;4.60;;;4.10;;
58896;SDS011;44677;52.378;10.400;2023-09-18T08:34:19;6.40;;;3.80;;
58896;SDS011;44677;52.378;10.400;2023-09-18T08:36:47;5.70;;;4.10;;
58896;SDS011;44677;52.378;10.400;2023-09-18T08:39:13;8.50;;;4.40;;
58896;SDS011;44677;52.378;10.400;2023-09-18T08:41:41;5.90;;;4.60;;
58896;SDS011;44677;52.378;10.400;2023-09-18T08:44:08;8.10;;;4.20;;
58896;SDS011;44677;52.378;10.400;2023-09-18T08:46:36;4.50;;;4.10;;
58896;SDS011;44677;52.378;10.400;2023-09-18T08:49:02;7.30;;;4.70;;
58896;SDS011;44677;52.378;10.400;2023-09-18T08:51:29;5.40;;;4.00;;
58896;SDS011;44677;52.378;10.400;2023-09-18T08:53:56;4.30;;;3.80;;
58896;SDS011;44677;52.378;10.400;2023-09-18T08:56:22;7.20;;;3.50;;
58896;SDS011;44677;52.378;10.400;2023-09-18T08:58:48;8.50;;;4.30;;
58896;SDS011;44677;52.378;10.400;2023-09-18T09:01:13;10.50;;;3.90;;
58896;SDS011;44677;52.378;10.400;2023-09-18T09:03:39;7.40;;;3.30;;
58896;SDS011;44677;52.378;10.400;2023-09-18T09:06:11;8.30;;;3.80;;
58896;SDS011;44677;52.378;10.400;2023-09-18T09:08:40;7.30;;;3.20;;
58896;SDS011;44677;52.378;10.400;2023-09-18T09:11:09;9.10;;;4.10;;
58896;SDS011;44677;52.378;10.400;2023-09-18T09:13:38;6.10;;;3.60;;
58896;SDS011;44677;52.378;10.400;2023-09-18T09:16:07;6.40;;;3.50;;
58896;SDS011;44677;52.378;10.400;2023-09-18T09:18:46;10.10;;;3.40;;
58896;SDS011;44677;52.378;10.400;2023-09-18T09:21:14;6.40;;;3.50;;
58896;SDS011;44677;52.378;10.400;2023-09-18T09:26:21;5.40;;;3.20;;
58896;SDS011;44677;52.378;10.400;2023-09-18T09:28:48;7.60;;;3.30;;
58896;SDS011;44677;52.378;10.400;2023-09-18T09:31:24;10.50;;;3.40;;
58896;SDS011;44677;52.378;10.400;2023-09-18T09:33:52;6.10;;;3.60;;
58896;SDS011;44677;52.378;10.400;2023-09-18T09:36:22;7.80;;;3.40;;
58896;SDS011;44677;52.378;10.400;2023-09-18T09:38:59;6.40;;;3.50;;
58896;SDS011;44677;52.378;10.400;2023-09-18T09:41:25;6.10;;;3.10;;
58896;SDS011;44677;52.378;10.400;2023-09-18T09:43:57;5.10;;;3.30;;
58896;SDS011;44677;52.378;10.400;2023-09-18T09:46:35;7.60;;;3.50;;
58896;SDS011;44677;52.378;10.400;2023-09-18T09:49:06;8.40;;;3.90;;
58896;SDS011;44677;52.378;10.400;2023-09-18T09:51:32;7.00;;;3.50;;
58896;SDS011;44677;52.378;10.400;2023-09-18T09:54:11;5.40;;;3.40;;
58896;SDS011;44677;52.378;10.400;2023-09-18T09:59:14;6.80;;;3.30;;
58896;SDS011;44677;52.378;10.400;2023-09-18T10:01:41;6.60;;;3.20;;
58896;SDS011;44677;52.378;10.400;2023-09-18T10:04:16;8.50;;;3.40;;
58896;SDS011;44677;52.378;10.400;2023-09-18T10:06:52;9.50;;;3.50;;
58896;SDS011;44677;52.378;10.400;2023-09-18T10:09:24;9.10;;;3.20;;
58896;SDS011;44677;52.378;10.400;2023-09-18T10:11:55;8.70;;;3.60;;
58896;SDS011;44677;52.378;10.400;2023-09-18T10:14:37;6.40;;;3.30;;
58896;SDS011;44677;52.378;10.400;2023-09-18T10:17:09;8.20;;;3.60;;
58896;SDS011;44677;52.378;10.400;2023-09-18T10:19:49;5.80;;;3.50;;
58896;SDS011;44677;52.378;10.400;2023-09-18T10:24:59;6.80;;;3.20;;
58896;SDS011;44677;52.378;10.400;2023-09-18T10:27:48;7.30;;;3.40;;
58896;SDS011;44677;52.378;10.400;2023-09-18T10:30:21;5.80;;;3.00;;
58896;SDS011;44677;52.378;10.400;2023-09-18T10:32:48;9.00;;;3.30;;
58896;SDS011;44677;52.378;10.400;2023-09-18T10:35:25;7.70;;;3.40;;
58896;SDS011;44677;52.378;10.400;2023-09-18T10:38:09;6.10;;;3.00;;
58896;SDS011;44677;52.378;10.400;2023-09-18T10:40:38;6.40;;;3.30;;
58896;SDS011;44677;52.378;10.400;2023-09-18T10:43:04;4.10;;;3.10;;
58896;SDS011;44677;52.378;10.400;2023-09-18T10:45:43;9.20;;;3.80;;
58896;SDS011;44677;52.378;10.400;2023-09-18T10:48:10;5.90;;;2.90;;
58896;SDS011;44677;52.378;10.400;2023-09-18T10:50:47;7.50;;;3.30;;
58896;SDS011;44677;52.378;10.400;2023-09-18T10:53:18;5.70;;;2.80;;
58896;SDS011;44677;52.378;10.400;2023-09-18T10:55:50;9.00;;;3.10;;
58896;SDS011;44677;52.378;10.400;2023-09-18T10:58:27;6.20;;;2.90;;
58896;SDS011;44677;52.378;10.400;2023-09-18T11:00:59;8.30;;;3.20;;
58896;SDS011;44677;52.378;10.400;2023-09-18T11:03:27;6.30;;;2.60;;
58896;SDS011;44677;52.378;10.400;2023-09-18T11:06:11;6.80;;;2.80;;
58896;SDS011;44677;52.378;10.400;2023-09-18T11:08:43;10.20;;;2.70;;
58896;SDS011;44677;52.378;10.400;2023-09-18T11:11:33;6.50;;;2.30;;
58896;SDS011;44677;52.378;10.400;2023-09-18T11:14:03;8.70;;;2.80;;
58896;SDS011;44677;52.378;10.400;2023-09-18T11:16:36;9.50;;;2.70;;
58896;SDS011;44677;52.378;10.400;2023-09-18T11:21:36;5.40;;;2.40;;
58896;SDS011;44677;52.378;10.400;2023-09-18T11:24:03;6.30;;;2.60;;
58896;SDS011;44677;52.378;10.400;2023-09-18T11:26:39;5.70;;;2.50;;
58896;SDS011;44677;52.378;10.400;2023-09-18T11:29:11;9.70;;;3.00;;
58896;SDS011;44677;52.378;10.400;2023-09-18T11:31:52;6.50;;;2.70;;
58896;SDS011;44677;52.378;10.400;2023-09-18T11:34:21;6.70;;;2.90;;
58896;SDS011;44677;52.378;10.400;2023-09-18T11:37:23;6.80;;;3.00;;
58896;SDS011;44677;52.378;10.400;2023-09-18T11:39:51;6.70;;;3.10;;
58896;SDS011;44677;52.378;10.400;2023-09-18T11:42:18;10.70;;;2.90;;
58896;SDS011;44677;52.378;10.400;2023-09-18T11:44:57;6.20;;;2.20;;
58896;SDS011;44677;52.378;10.400;2023-09-18T11:47:24;6.20;;;2.20;;
58896;SDS011;44677;52.378;10.400;2023-09-18T11:49:54;4.90;;;2.60;;
58896;SDS011;44677;52.378;10.400;2023-09-18T11:52:26;9.50;;;2.50;;
58896;SDS011;44677;52.378;10.400;2023-09-18T11:54:56;8.50;;;2.30;;
58896;SDS011;44677;52.378;10.400;2023-09-18T11:57:26;8.50;;;2.60;;
58896;SDS011;44677;52.378;10.400;2023-09-18T11:59:59;5.70;;;2.30;;
58896;SDS011;44677;52.378;10.400;2023-09-18T12:02:38;5.70;;;2.60;;
58896;SDS011;44677;52.378;10.400;2023-09-18T12:05:14;9.30;;;2.90;;
58896;SDS011;44677;52.378;10.400;2023-09-18T12:07:57;6.80;;;2.40;;
58896;SDS011;44677;52.378;10.400;2023-09-18T12:10:30;6.20;;;2.30;;
58896;SDS011;44677;52.378;10.400;2023-09-18T12:15:22;5.10;;;1.90;;
58896;SDS011;44677;52.378;10.400;2023-09-18T12:17:53;4.90;;;2.10;;
58896;SDS011;44677;52.378;10.400;2023-09-18T12:20:21;5.90;;;2.10;;
58896;SDS011;44677;52.378;10.400;2023-09-18T12:22:49;4.20;;;2.40;;
58896;SDS011;44677;52.378;10.400;2023-09-18T12:25:19;6.70;;;2.30;;
58896;SDS011;44677;52.378;10.400;2023-09-18T12:27:44;7.20;;;2.20;;
58896;SDS011;44677;52.378;10.400;2023-09-18T12:30:12;4.40;;;2.10;;
58896;SDS011;44677;52.378;10.400;2023-09-18T12:32:45;6.00;;;2.20;;
58896;SDS011;44677;52.378;10.400;2023-09-18T12:35:13;4.10;;;2.20;;
58896;SDS011;44677;52.378;10.400;2023-09-18T12:37:39;3.40;;;2.60;;
58896;SDS011;44677;52.378;10.400;2023-09-18T12:40:06;4.00;;;2.10;;
58896;SDS011;44677;52.378;10.400;2023-09-18T12:42:54;7.00;;;2.10;;
58896;SDS011;44677;52.378;10.400;2023-09-18T12:45:21;5.10;;;2.20;;
58896;SDS011;44677;52.378;10.400;2023-09-18T12:47:54;6.20;;;2.80;;
58896;SDS011;44677;52.378;10.400;2023-09-18T12:50:23;5.80;;;2.50;;
58896;SDS011;44677;52.378;10.400;2023-09-18T12:52:49;6.50;;;2.60;;
58896;SDS011;44677;52.378;10.400;2023-09-18T12:55:24;7.00;;;2.50;;
58896;SDS011;44677;52.378;10.400;2023-09-18T12:57:53;6.90;;;2.20;;
58896;SDS011;44677;52.378;10.400;2023-09-18T13:00:19;6.90;;;2.40;;
58896;SDS011;44677;52.378;10.400;2023-09-18T13:02:50;6.70;;;2.20;;
58896;SDS011;44677;52.378;10.400;2023-09-18T13:05:22;6.80;;;2.40;;
58896;SDS011;44677;52.378;10.400;2023-09-18T13:07:51;8.40;;;2.60;;
58896;SDS011;44677;52.378;10.400;2023-09-18T13:10:18;7.20;;;2.30;;
58896;SDS011;44677;52.378;10.400;2023-09-18T13:12:48;5.80;;;2.80;;
58896;SDS011;44677;52.378;10.400;2023-09-18T13:15:26;5.90;;;2.10;;
58896;SDS011;44677;52.378;10.400;2023-09-18T13:18:00;6.40;;;2.90;;
58896;SDS011;44677;52.378;10.400;2023-09-18T13:20:36;7.00;;;2.70;;
58896;SDS011;44677;52.378;10.400;2023-09-18T13:23:02;6.40;;;2.50;;
58896;SDS011;44677;52.378;10.400;2023-09-18T13:25:29;5.60;;;2.30;;
58896;SDS011;44677;52.378;10.400;2023-09-18T13:28:02;7.00;;;2.40;;
58896;SDS011;44677;52.378;10.400;2023-09-18T13:30:29;6.30;;;2.20;;
58896;SDS011;44677;52.378;10.400;2023-09-18T13:33:09;6.20;;;2.30;;
58896;SDS011;44677;52.378;10.400;2023-09-18T13:35:45;5.70;;;2.60;;
58896;SDS011;44677;52.378;10.400;2023-09-18T13:38:11;5.00;;;2.10;;
58896;SDS011;44677;52.378;10.400;2023-09-18T13:40:37;5.00;;;2.50;;
58896;SDS011;44677;52.378;10.400;2023-09-18T13:43:04;5.00;;;2.00;;
58896;SDS011;44677;52.378;10.400;2023-09-18T13:45:30;3.90;;;2.10;;
58896;SDS011;44677;52.378;10.400;2023-09-18T13:47:56;4.10;;;2.10;;
58896;SDS011;44677;52.378;10.400;2023-09-18T13:50:22;4.40;;;2.20;;
58896;SDS011;44677;52.378;10.400;2023-09-18T13:52:47;7.00;;;2.40;;
58896;SDS011;44677;52.378;10.400;2023-09-18T13:55:13;6.20;;;2.60;;
58896;SDS011;44677;52.378;10.400;2023-09-18T13:57:38;5.60;;;2.40;;
58896;SDS011;44677;52.378;10.400;2023-09-18T14:00:13;4.50;;;2.20;;
58896;SDS011;44677;52.378;10.400;2023-09-18T14:02:39;3.80;;;2.00;;
58896;SDS011;44677;52.378;10.400;2023-09-18T14:05:06;2.80;;;2.00;;
58896;SDS011;44677;52.378;10.400;2023-09-18T14:07:32;7.40;;;2.40;;
58896;SDS011;44677;52.378;10.400;2023-09-18T14:09:57;6.70;;;2.40;;
58896;SDS011;44677;52.378;10.400;2023-09-18T14:12:23;6.00;;;2.30;;
58896;SDS011;44677;52.378;10.400;2023-09-18T14:14:49;5.50;;;2.00;;
58896;SDS011;44677;52.378;10.400;2023-09-18T14:17:15;4.00;;;2.20;;
58896;SDS011;44677;52.378;10.400;2023-09-18T14:19:47;5.40;;;2.10;;
58896;SDS011;44677;52.378;10.400;2023-09-18T14:22:13;5.20;;;2.20;;
58896;SDS011;44677;52.378;10.400;2023-09-18T14:24:41;7.10;;;2.30;;
58896;SDS011;44677;52.378;10.400;2023-09-18T14:27:07;5.10;;;2.40;;
58896;SDS011;44677;52.378;10.400;2023-09-18T14:29:33;6.00;;;2.70;;
58896;SDS011;44677;52.378;10.400;2023-09-18T14:32:01;2.90;;;2.10;;
58896;SDS011;44677;52.378;10.400;2023-09-18T14:34:28;2.90;;;2.00;;
58896;SDS011;44677;52.378;10.400;2023-09-18T14:36:56;3.90;;;2.10;;
58896;SDS011;44677;52.378;10.400;2023-09-18T14:39:32;4.20;;;2.00;;
58896;SDS011;44677;52.378;10.400;2023-09-18T14:41:58;2.80;;;1.80;;
58896;SDS011;44677;52.378;10.400;2023-09-18T14:44:25;6.60;;;2.30;;
58896;SDS011;44677;52.378;10.400;2023-09-18T14:46:50;3.80;;;1.90;;
58896;SDS011;44677;52.378;10.400;2023-09-18T14:49:16;4.50;;;2.00;;
58896;SDS011;44677;52.378;10.400;2023-09-18T14:51:41;4.40;;;2.10;;
58896;SDS011;44677;52.378;10.400;2023-09-18T14:54:07;2.30;;;2.10;;
58896;SDS011;44677;52.378;10.400;2023-09-18T14:56:41;5.70;;;2.20;;
58896;SDS011;44677;52.378;10.400;2023-09-18T14:59:07;4.20;;;2.20;;
58896;SDS011;44677;52.378;10.400;2023-09-18T15:01:33;4.00;;;2.40;;
58896;SDS011;44677;52.378;10.400;2023-09-18T15:03:59;5.90;;;2.30;;
58896;SDS011;44677;52.378;10.400;2023-09-18T15:06:24;5.20;;;2.20;;
58896;SDS011;44677;52.378;10.400;2023-09-18T15:08:51;6.80;;;2.10;;